Time;durP1;ratioP1;P1;durP2;ratioP2;P2;SDS_P1;SDS_P2;PMS_P1;PMS_P2;Temp;Humidity;BMP_temperature;BMP_pressure;BME280_temperature;BME280_humidity;BME280_pressure;Samples;Min_cycle;Max_cycle;Signal;HPM_P1;HPM_P2
2023/11/11 00:00:19;;;;;;;4.37;2.57;;;;;;;;;;2613474;54;20413;-76
2023/11/11 00:02:45;;;;;;;5.33;3.13;;;;;;;;;;2613714;47;20527;-76
2023/11/11 00:05:11;;;;;;;2.67;1.70;;;;;;;;;;2614754;54;20966;-76
2023/11/11 00:07:37;;;;;;;3.10;2.23;;;;;;;;;;2613648;54;20454;-77
2023/11/11 00:10:03;;;;;;;2.87;2.07;;;;;;;;;;2614528;39;20735;-78
2023/11/11 00:12:30;;;;;;;3.43;2.20;;;;;;;;;;2613453;47;21036;-76
2023/11/11 00:14:56;;;;;;;3.80;2.27;;;;;;;;;;2612924;54;20411;-77
2023/11/11 00:17:22;;;;;;;2.63;1.80;;;;;;;;;;2613283;54;20392;-78
2023/11/11 00:19:49;;;;;;;3.37;1.83;;;;;;;;;;2614095;54;20415;-76
2023/11/11 00:22:15;;;;;;;2.03;1.43;;;;;;;;;;2614510;54;20426;-78
2023/11/11 00:24:42;;;;;;;4.40;1.90;;;;;;;;;;2615061;54;20411;-76
2023/11/11 00:27:08;;;;;;;3.00;1.80;;;;;;;;;;2614070;54;20415;-76
2023/11/11 00:29:34;;;;;;;3.07;1.90;;;;;;;;;;2614991;54;20499;-76
2023/11/11 00:32:00;;;;;;;2.90;1.40;;;;;;;;;;2614610;54;20547;-74
2023/11/11 00:34:27;;;;;;;3.00;1.83;;;;;;;;;;2613998;47;20436;-74
2023/11/11 00:36:53;;;;;;;3.33;2.00;;;;;;;;;;2615176;54;20446;-75
2023/11/11 00:39:22;;;;;;;3.10;1.20;;;;;;;;;;2614358;54;20382;-75
2023/11/11 00:41:48;;;;;;;2.10;1.60;;;;;;;;;;2615163;54;20515;-74
2023/11/11 00:44:14;;;;;;;2.60;1.83;;;;;;;;;;2614952;54;20529;-75
2023/11/11 00:46:41;;;;;;;5.33;2.40;;;;;;;;;;2613921;47;20421;-75
2023/11/11 00:49:07;;;;;;;4.10;2.80;;;;;;;;;;2614780;54;20434;-75
2023/11/11 00:51:39;;;;;;;5.30;2.87;;;;;;;;;;2614010;54;20423;-75
2023/11/11 00:54:09;;;;;;;3.90;2.90;;;;;;;;;;2614861;54;20445;-75
2023/11/11 00:56:39;;;;;;;6.80;4.10;;;;;;;;;;2614890;39;20793;-75
2023/11/11 00:59:05;;;;;;;4.87;3.00;;;;;;;;;;2613537;54;20415;-75
2023/11/11 01:01:33;;;;;;;4.73;3.30;;;;;;;;;;2614834;31;20861;-75
2023/11/11 01:04:00;;;;;;;4.50;3.43;;;;;;;;;;2613945;54;20414;-74
2023/11/11 01:06:26;;;;;;;6.50;3.87;;;;;;;;;;2614263;54;20371;-75
2023/11/11 01:08:52;;;;;;;5.33;4.10;;;;;;;;;;2613262;46;20432;-74
2023/11/11 01:11:20;;;;;;;6.80;3.67;;;;;;;;;;2614644;54;21372;-75
2023/11/11 01:13:48;;;;;;;7.43;4.60;;;;;;;;;;2614186;54;20437;-77
2023/11/11 01:16:16;;;;;;;6.30;4.93;;;;;;;;;;2615062;54;20467;-77
2023/11/11 01:18:42;;;;;;;8.50;4.50;;;;;;;;;;2614119;54;20458;-78
2023/11/11 01:21:08;;;;;;;8.53;5.97;;;;;;;;;;2614463;39;20823;-77
2023/11/11 01:23:35;;;;;;;8.40;5.37;;;;;;;;;;2614569;39;20832;-76
2023/11/11 01:26:04;;;;;;;13.80;8.13;;;;;;;;;;2614000;50;20450;-76
2023/11/11 01:28:31;;;;;;;20.33;10.43;;;;;;;;;;2614465;54;20434;-77
2023/11/11 01:30:57;;;;;;;19.73;11.07;;;;;;;;;;2613017;54;20415;-77
2023/11/11 01:33:24;;;;;;;22.60;12.37;;;;;;;;;;2612901;47;20410;-76
2023/11/11 01:35:51;;;;;;;17.17;10.97;;;;;;;;;;2614628;54;20472;-77
2023/11/11 01:38:17;;;;;;;22.10;12.47;;;;;;;;;;2615206;54;20487;-78
2023/11/11 01:40:44;;;;;;;25.83;14.70;;;;;;;;;;2614801;54;20402;-77
2023/11/11 01:43:12;;;;;;;27.60;16.47;;;;;;;;;;2614946;54;20419;-77
2023/11/11 01:45:41;;;;;;;32.07;16.30;;;;;;;;;;2613909;54;20410;-77
2023/11/11 01:48:07;;;;;;;33.23;15.93;;;;;;;;;;2613726;47;21091;-76
2023/11/11 01:50:35;;;;;;;35.57;19.20;;;;;;;;;;2614295;47;20412;-76
2023/11/11 01:53:01;;;;;;;34.73;20.60;;;;;;;;;;2614792;54;20411;-73
2023/11/11 01:55:27;;;;;;;40.40;20.23;;;;;;;;;;2614554;54;20413;-74
2023/11/11 01:57:54;;;;;;;36.27;20.10;;;;;;;;;;2614403;54;20394;-73
2023/11/11 02:00:21;;;;;;;43.30;21.93;;;;;;;;;;2614228;54;20420;-74
2023/11/11 02:02:48;;;;;;;36.87;21.07;;;;;;;;;;2613000;54;20431;-75
2023/11/11 02:05:14;;;;;;;33.87;21.40;;;;;;;;;;2614391;54;20455;-73
2023/11/11 02:07:40;;;;;;;42.53;24.73;;;;;;;;;;2613162;54;20445;-75
2023/11/11 02:10:07;;;;;;;35.83;22.47;;;;;;;;;;2613990;54;20428;-73
2023/11/11 02:12:33;;;;;;;43.67;24.17;;;;;;;;;;2613300;54;20464;-73
2023/11/11 02:15:00;;;;;;;43.73;23.83;;;;;;;;;;2614292;39;20841;-73
2023/11/11 02:17:27;;;;;;;43.67;22.60;;;;;;;;;;2613662;54;20427;-74
2023/11/11 02:19:53;;;;;;;37.27;23.37;;;;;;;;;;2613583;46;20406;-73
2023/11/11 02:22:19;;;;;;;33.83;19.07;;;;;;;;;;2613375;54;20483;-75
2023/11/11 02:24:49;;;;;;;35.80;22.73;;;;;;;;;;2611614;54;20401;-74
2023/11/11 02:27:16;;;;;;;35.00;20.43;;;;;;;;;;2612390;47;20829;-74
2023/11/11 02:29:45;;;;;;;38.57;21.10;;;;;;;;;;2613444;47;20411;-75
2023/11/11 02:32:12;;;;;;;37.73;22.53;;;;;;;;;;2614044;54;20503;-74
2023/11/11 02:34:38;;;;;;;35.07;21.73;;;;;;;;;;2613904;54;20387;-75
2023/11/11 02:37:04;;;;;;;38.20;22.17;;;;;;;;;;2613191;54;20547;-75
2023/11/11 02:39:30;;;;;;;31.63;20.20;;;;;;;;;;2613821;54;21018;-74
2023/11/11 02:41:56;;;;;;;33.77;21.60;;;;;;;;;;2612698;54;20433;-75
2023/11/11 02:44:22;;;;;;;32.50;20.23;;;;;;;;;;2613231;54;20411;-74
2023/11/11 02:46:48;;;;;;;40.00;22.50;;;;;;;;;;2613061;54;20383;-74
2023/11/11 02:49:14;;;;;;;36.43;21.93;;;;;;;;;;2613248;54;20478;-75
2023/11/11 02:51:40;;;;;;;36.80;19.90;;;;;;;;;;2613175;54;20396;-74
2023/11/11 02:54:06;;;;;;;34.00;20.60;;;;;;;;;;2613035;54;20396;-74
2023/11/11 02:56:32;;;;;;;29.67;18.77;;;;;;;;;;2614202;54;20503;-74
2023/11/11 02:58:58;;;;;;;29.13;19.63;;;;;;;;;;2611562;47;21000;-74
2023/11/11 03:01:24;;;;;;;40.10;22.70;;;;;;;;;;2613202;39;20481;-74
2023/11/11 03:03:50;;;;;;;36.33;21.90;;;;;;;;;;2614033;54;20423;-74
2023/11/11 03:06:18;;;;;;;37.03;22.67;;;;;;;;;;2613992;54;20437;-75
2023/11/11 03:08:44;;;;;;;34.03;19.87;;;;;;;;;;2614363;54;20431;-74
2023/11/11 03:11:12;;;;;;;39.60;23.90;;;;;;;;;;2613217;47;20423;-74
2023/11/11 03:13:38;;;;;;;34.80;21.13;;;;;;;;;;2613753;54;21064;-74
2023/11/11 03:16:05;;;;;;;38.90;22.00;;;;;;;;;;2613646;54;20413;-72
2023/11/11 03:18:31;;;;;;;30.17;19.63;;;;;;;;;;2612512;54;20910;-73
2023/11/11 03:20:58;;;;;;;36.80;23.93;;;;;;;;;;2612579;54;20399;-73
2023/11/11 03:23:24;;;;;;;28.60;17.80;;;;;;;;;;2613849;54;20489;-74
2023/11/11 03:25:50;;;;;;;36.97;20.50;;;;;;;;;;2613582;54;20396;-74
2023/11/11 03:28:16;;;;;;;27.67;17.60;;;;;;;;;;2613153;47;20402;-73
2023/11/11 03:30:42;;;;;;;32.93;20.03;;;;;;;;;;2613453;54;20400;-73
2023/11/11 03:33:08;;;;;;;23.90;15.07;;;;;;;;;;2612479;39;20822;-74
2023/11/11 03:35:34;;;;;;;32.03;19.90;;;;;;;;;;2613845;54;20431;-74
2023/11/11 03:38:00;;;;;;;28.90;16.77;;;;;;;;;;2612690;47;20482;-73
2023/11/11 03:40:26;;;;;;;36.07;20.27;;;;;;;;;;2613154;46;21055;-74
2023/11/11 03:42:52;;;;;;;26.77;17.10;;;;;;;;;;2612875;54;20468;-74
2023/11/11 03:45:18;;;;;;;32.50;18.40;;;;;;;;;;2613856;54;20383;-75
2023/11/11 03:47:44;;;;;;;31.40;19.60;;;;;;;;;;2613744;54;21233;-73
2023/11/11 03:50:10;;;;;;;29.67;19.43;;;;;;;;;;2611639;47;20923;-73
2023/11/11 03:52:36;;;;;;;25.90;15.70;;;;;;;;;;2612222;54;20411;-73
2023/11/11 03:55:04;;;;;;;28.83;17.00;;;;;;;;;;2613806;54;20454;-74
2023/11/11 03:57:30;;;;;;;33.97;18.00;;;;;;;;;;2613511;54;20414;-73
2023/11/11 03:59:56;;;;;;;33.87;19.70;;;;;;;;;;2613649;54;21016;-73
2023/11/11 04:02:22;;;;;;;29.23;16.57;;;;;;;;;;2612589;47;21043;-74
2023/11/11 04:04:48;;;;;;;25.00;15.13;;;;;;;;;;2612801;47;20424;-76
2023/11/11 04:07:14;;;;;;;32.67;16.10;;;;;;;;;;2613574;54;20414;-72
2023/11/11 04:09:42;;;;;;;29.27;18.00;;;;;;;;;;2612172;54;20539;-73
2023/11/11 04:12:09;;;;;;;35.90;16.00;;;;;;;;;;2613799;54;20424;-73
2023/11/11 04:14:34;;;;;;;27.80;17.90;;;;;;;;;;2613448;54;20408;-73
2023/11/11 04:17:01;;;;;;;22.00;13.67;;;;;;;;;;2612611;54;20531;-73
2023/11/11 04:19:27;;;;;;;25.80;16.07;;;;;;;;;;2613238;54;20989;-73
2023/11/11 04:21:54;;;;;;;24.63;15.73;;;;;;;;;;2613672;39;20770;-74
2023/11/11 04:24:20;;;;;;;26.27;15.73;;;;;;;;;;2613606;54;21007;-73
2023/11/11 04:26:46;;;;;;;28.73;15.60;;;;;;;;;;2612525;54;20423;-74
2023/11/11 04:29:12;;;;;;;25.77;14.10;;;;;;;;;;2611097;54;20422;-73
2023/11/11 04:31:39;;;;;;;29.77;15.63;;;;;;;;;;2611694;54;20414;-74
2023/11/11 04:34:05;;;;;;;24.37;15.90;;;;;;;;;;2612603;47;20949;-73
2023/11/11 04:36:31;;;;;;;25.53;16.63;;;;;;;;;;2613348;54;20398;-73
2023/11/11 04:38:57;;;;;;;19.30;12.20;;;;;;;;;;2614268;39;20781;-72
2023/11/11 04:41:23;;;;;;;24.87;14.93;;;;;;;;;;2613339;54;20465;-73
2023/11/11 04:43:51;;;;;;;28.73;15.87;;;;;;;;;;2612492;54;20411;-75
2023/11/11 04:46:17;;;;;;;22.77;13.10;;;;;;;;;;2612655;54;20551;-77
2023/11/11 04:48:43;;;;;;;21.63;12.10;;;;;;;;;;2613530;54;20459;-77
2023/11/11 04:51:09;;;;;;;19.50;12.90;;;;;;;;;;2613736;54;20510;-77
2023/11/11 04:53:36;;;;;;;23.33;14.30;;;;;;;;;;2613480;54;20402;-77
2023/11/11 04:56:03;;;;;;;27.33;13.97;;;;;;;;;;2612825;47;20966;-76
2023/11/11 04:58:29;;;;;;;15.47;12.57;;;;;;;;;;2613106;54;20435;-76
2023/11/11 05:00:55;;;;;;;30.13;14.50;;;;;;;;;;2611494;39;20827;-76
2023/11/11 05:03:22;;;;;;;19.23;12.33;;;;;;;;;;2612921;39;20790;-77
2023/11/11 05:05:48;;;;;;;18.20;12.43;;;;;;;;;;2613686;54;20391;-77
2023/11/11 05:08:14;;;;;;;23.93;12.13;;;;;;;;;;2613111;54;21027;-77
2023/11/11 05:10:40;;;;;;;17.63;12.60;;;;;;;;;;2614309;54;20434;-76
2023/11/11 05:13:08;;;;;;;33.97;11.77;;;;;;;;;;2614313;54;20426;-76
2023/11/11 05:15:42;;;;;;;18.13;10.40;;;;;;;;;;2613717;54;20422;-76
2023/11/11 05:18:08;;;;;;;17.33;10.60;;;;;;;;;;2612630;54;20446;-77
2023/11/11 05:20:34;;;;;;;15.63;9.70;;;;;;;;;;2614073;54;20395;-76
2023/11/11 05:23:01;;;;;;;21.73;14.50;;;;;;;;;;2614047;39;20850;-75
2023/11/11 05:25:28;;;;;;;18.77;11.73;;;;;;;;;;2614971;31;20863;-75
2023/11/11 05:27:54;;;;;;;21.33;12.17;;;;;;;;;;2614140;54;20419;-74
2023/11/11 05:30:22;;;;;;;18.03;10.13;;;;;;;;;;2613580;47;20954;-75
2023/11/11 05:32:48;;;;;;;20.07;12.53;;;;;;;;;;2613025;47;20954;-74
2023/11/11 05:35:14;;;;;;;14.60;10.00;;;;;;;;;;2613303;54;20553;-75
2023/11/11 05:37:43;;;;;;;18.47;10.90;;;;;;;;;;2613180;54;20450;-74
2023/11/11 05:40:16;;;;;;;18.47;9.70;;;;;;;;;;2614414;54;21111;-74
2023/11/11 05:42:42;;;;;;;18.17;10.90;;;;;;;;;;2614344;54;20486;-74
2023/11/11 05:45:10;;;;;;;20.77;12.03;;;;;;;;;;2613663;54;20538;-74
2023/11/11 05:47:36;;;;;;;15.63;10.70;;;;;;;;;;2613036;47;20407;-75
2023/11/11 05:50:02;;;;;;;14.70;8.90;;;;;;;;;;2613675;47;20451;-75
2023/11/11 05:52:28;;;;;;;11.80;8.87;;;;;;;;;;2612967;54;20410;-75
2023/11/11 05:54:54;;;;;;;17.43;9.47;;;;;;;;;;2614332;54;20408;-77
2023/11/11 05:57:20;;;;;;;11.40;9.03;;;;;;;;;;2613537;54;20393;-76
2023/11/11 05:59:46;;;;;;;11.30;7.40;;;;;;;;;;2614665;54;20399;-76
2023/11/11 06:02:15;;;;;;;10.57;6.50;;;;;;;;;;2612809;54;20428;-77
2023/11/11 06:04:41;;;;;;;9.13;6.03;;;;;;;;;;2613665;47;20526;-76
2023/11/11 06:07:07;;;;;;;13.70;7.50;;;;;;;;;;2613774;54;20505;-77
2023/11/11 06:09:35;;;;;;;6.57;4.13;;;;;;;;;;2614408;54;20987;-76
2023/11/11 06:12:02;;;;;;;5.83;4.53;;;;;;;;;;2613799;54;20411;-75
2023/11/11 06:14:29;;;;;;;9.90;4.77;;;;;;;;;;2614834;39;20821;-76
2023/11/11 06:16:54;;;;;;;6.43;4.23;;;;;;;;;;2614131;54;20466;-76
2023/11/11 06:19:21;;;;;;;9.60;4.47;;;;;;;;;;2612871;39;20789;-75
2023/11/11 06:21:47;;;;;;;6.57;4.63;;;;;;;;;;2613003;54;20424;-77
2023/11/11 06:24:13;;;;;;;4.07;2.97;;;;;;;;;;2614067;46;20457;-76
2023/11/11 06:26:39;;;;;;;6.10;3.70;;;;;;;;;;2613867;54;20410;-75
2023/11/11 06:29:06;;;;;;;6.33;3.60;;;;;;;;;;2613025;54;20432;-76
2023/11/11 06:31:33;;;;;;;7.63;4.30;;;;;;;;;;2614363;54;20446;-77
2023/11/11 06:34:04;;;;;;;4.50;3.40;;;;;;;;;;2613858;54;20434;-76
2023/11/11 06:36:30;;;;;;;4.63;3.67;;;;;;;;;;2612165;54;20438;-76
2023/11/11 06:38:57;;;;;;;6.50;3.20;;;;;;;;;;2612686;46;20435;-76
2023/11/11 06:41:23;;;;;;;7.60;4.57;;;;;;;;;;2612198;54;20440;-77
2023/11/11 06:43:49;;;;;;;6.53;3.53;;;;;;;;;;2613037;46;20865;-77
2023/11/11 06:46:15;;;;;;;6.20;3.80;;;;;;;;;;2613844;54;20439;-76
2023/11/11 06:48:41;;;;;;;4.63;3.40;;;;;;;;;;2613813;54;20417;-75
2023/11/11 06:51:07;;;;;;;6.30;2.77;;;;;;;;;;2613777;46;20432;-77
2023/11/11 06:53:33;;;;;;;6.43;2.83;;;;;;;;;;2613952;54;20525;-76
2023/11/11 06:55:59;;;;;;;6.03;3.40;;;;;;;;;;2613310;54;20497;-78
2023/11/11 06:58:25;;;;;;;6.07;3.23;;;;;;;;;;2613843;54;20427;-79
2023/11/11 07:00:52;;;;;;;9.53;3.50;;;;;;;;;;2614035;54;20429;-75
2023/11/11 07:03:18;;;;;;;12.77;4.80;;;;;;;;;;2612192;54;20407;-75
2023/11/11 07:05:44;;;;;;;10.30;7.07;;;;;;;;;;2611352;54;20528;-77
2023/11/11 07:08:10;;;;;;;9.63;5.73;;;;;;;;;;2611846;54;20459;-84
2023/11/11 07:10:37;;;;;;;12.43;4.93;;;;;;;;;;2612278;47;20436;-77
2023/11/11 07:13:04;;;;;;;11.30;5.90;;;;;;;;;;2612944;47;21300;-77
2023/11/11 07:15:30;;;;;;;14.37;5.67;;;;;;;;;;2612091;54;20963;-76
2023/11/11 07:17:56;;;;;;;12.00;7.07;;;;;;;;;;2612432;54;20416;-77
2023/11/11 07:20:22;;;;;;;17.73;8.23;;;;;;;;;;2611616;39;20832;-76
2023/11/11 07:22:51;;;;;;;11.63;8.43;;;;;;;;;;2613707;54;20399;-76
2023/11/11 07:25:17;;;;;;;16.20;9.20;;;;;;;;;;2612635;54;20393;-75
2023/11/11 07:27:43;;;;;;;21.30;12.20;;;;;;;;;;2612033;51;20948;-74
2023/11/11 07:30:12;;;;;;;20.27;11.57;;;;;;;;;;2612752;47;20439;-74
2023/11/11 07:32:39;;;;;;;18.23;11.50;;;;;;;;;;2612870;54;20488;-74
2023/11/11 07:35:07;;;;;;;15.90;11.10;;;;;;;;;;2614186;54;20901;-74
2023/11/11 07:37:33;;;;;;;20.40;11.90;;;;;;;;;;2613335;47;20426;-74
2023/11/11 07:39:59;;;;;;;14.20;9.67;;;;;;;;;;2614300;54;20408;-75
2023/11/11 07:42:26;;;;;;;24.33;12.00;;;;;;;;;;2613350;54;20514;-74
2023/11/11 07:44:54;;;;;;;19.53;11.43;;;;;;;;;;2613325;54;20407;-74
2023/11/11 07:47:21;;;;;;;23.97;15.33;;;;;;;;;;2613833;39;20766;-74
2023/11/11 07:49:48;;;;;;;21.37;12.53;;;;;;;;;;2612672;47;20419;-75
2023/11/11 07:52:14;;;;;;;20.67;13.80;;;;;;;;;;2613146;54;20412;-75
2023/11/11 07:54:40;;;;;;;20.33;12.10;;;;;;;;;;2614134;54;20446;-75
2023/11/11 07:57:09;;;;;;;18.53;10.70;;;;;;;;;;2612965;39;20819;-74
2023/11/11 07:59:44;;;;;;;19.43;10.27;;;;;;;;;;2613804;39;20898;-74
2023/11/11 08:02:14;;;;;;;20.20;11.30;;;;;;;;;;2612883;54;20502;-74
2023/11/11 08:04:42;;;;;;;17.77;11.50;;;;;;;;;;2612562;54;20407;-77
2023/11/11 08:07:11;;;;;;;23.53;11.60;;;;;;;;;;2614499;39;20939;-74
2023/11/11 08:09:37;;;;;;;22.17;13.07;;;;;;;;;;2613443;54;20469;-75
2023/11/11 08:12:04;;;;;;;17.10;10.60;;;;;;;;;;2613671;54;20431;-74
2023/11/11 08:14:30;;;;;;;14.87;9.13;;;;;;;;;;2613722;54;20922;-75
2023/11/11 08:16:58;;;;;;;14.23;8.60;;;;;;;;;;2613768;54;20424;-75
2023/11/11 08:19:24;;;;;;;19.07;10.40;;;;;;;;;;2613282;51;20449;-74
2023/11/11 08:21:50;;;;;;;20.83;13.40;;;;;;;;;;2612577;54;21017;-75
2023/11/11 08:24:16;;;;;;;12.30;8.77;;;;;;;;;;2612947;54;20400;-75
2023/11/11 08:26:42;;;;;;;22.70;12.80;;;;;;;;;;2612209;54;20551;-74
2023/11/11 08:29:08;;;;;;;17.83;12.00;;;;;;;;;;2613572;54;20566;-75
2023/11/11 08:31:35;;;;;;;17.30;7.80;;;;;;;;;;2613660;54;20355;-76
2023/11/11 08:34:01;;;;;;;12.93;8.17;;;;;;;;;;2613468;54;20385;-78
2023/11/11 08:36:27;;;;;;;14.20;9.17;;;;;;;;;;2615204;39;20794;-78
2023/11/11 08:38:53;;;;;;;18.37;11.47;;;;;;;;;;2614103;54;20423;-78
2023/11/11 08:41:19;;;;;;;14.17;9.13;;;;;;;;;;2614050;47;21296;-78
2023/11/11 08:43:46;;;;;;;10.63;9.03;;;;;;;;;;2614528;47;20435;-79
2023/11/11 08:46:12;;;;;;;15.93;10.30;;;;;;;;;;2614460;54;20395;-77
2023/11/11 08:48:40;;;;;;;9.40;7.00;;;;;;;;;;2615330;46;20405;-79
2023/11/11 08:51:08;;;;;;;19.30;8.47;;;;;;;;;;2615545;54;20421;-79
2023/11/11 08:53:35;;;;;;;21.13;11.83;;;;;;;;;;2615039;54;20488;-78
2023/11/11 08:56:01;;;;;;;18.80;11.37;;;;;;;;;;2615239;54;20407;-79
2023/11/11 08:58:27;;;;;;;15.87;8.87;;;;;;;;;;2616060;54;20955;-79
2023/11/11 09:00:53;;;;;;;15.90;9.87;;;;;;;;;;2615280;54;20428;-78
2023/11/11 09:03:20;;;;;;;11.83;6.60;;;;;;;;;;2616037;54;20398;-78
2023/11/11 09:05:46;;;;;;;20.30;10.60;;;;;;;;;;2616256;47;20429;-79
2023/11/11 09:08:12;;;;;;;15.47;10.07;;;;;;;;;;2616612;47;20471;-78
2023/11/11 09:10:39;;;;;;;14.30;9.00;;;;;;;;;;2616161;47;20503;-79
2023/11/11 09:13:06;;;;;;;16.60;11.37;;;;;;;;;;2615922;54;20450;-78
2023/11/11 09:15:33;;;;;;;17.80;11.50;;;;;;;;;;2617108;54;20720;-79
2023/11/11 09:18:01;;;;;;;20.40;9.60;;;;;;;;;;2616210;54;20419;-78
2023/11/11 09:20:29;;;;;;;13.30;8.40;;;;;;;;;;2616315;54;20470;-77
2023/11/11 09:22:56;;;;;;;17.43;11.10;;;;;;;;;;2615823;47;20451;-77
2023/11/11 09:25:22;;;;;;;12.40;7.77;;;;;;;;;;2616947;39;20830;-78
2023/11/11 09:27:50;;;;;;;15.67;10.37;;;;;;;;;;2616865;39;20839;-78
2023/11/11 09:30:18;;;;;;;20.33;10.20;;;;;;;;;;2616427;54;20438;-77
2023/11/11 09:32:46;;;;;;;17.10;10.10;;;;;;;;;;2617137;54;20421;-77
2023/11/11 09:35:15;;;;;;;14.77;9.30;;;;;;;;;;2616525;54;20428;-77
2023/11/11 09:37:41;;;;;;;19.90;11.23;;;;;;;;;;2615614;54;20449;-78
2023/11/11 09:40:11;;;;;;;10.13;7.40;;;;;;;;;;2616132;46;20423;-77
2023/11/11 09:42:37;;;;;;;12.97;10.07;;;;;;;;;;2615908;47;20450;-78
2023/11/11 09:45:04;;;;;;;12.83;10.13;;;;;;;;;;2614631;54;20442;-75
2023/11/11 09:47:34;;;;;;;12.50;8.13;;;;;;;;;;2612305;54;20942;-74
2023/11/11 09:50:00;;;;;;;23.40;12.20;;;;;;;;;;2613689;39;21241;-75
2023/11/11 09:52:30;;;;;;;24.90;11.30;;;;;;;;;;2613960;54;20409;-75
2023/11/11 09:54:57;;;;;;;13.70;11.47;;;;;;;;;;2614387;54;20407;-74
2023/11/11 09:57:23;;;;;;;14.63;11.17;;;;;;;;;;2614239;54;20396;-75
2023/11/11 09:59:52;;;;;;;21.00;9.97;;;;;;;;;;2613405;54;20378;-77
2023/11/11 10:02:18;;;;;;;16.80;9.67;;;;;;;;;;2614406;39;20809;-75
2023/11/11 10:04:44;;;;;;;14.93;10.17;;;;;;;;;;2613949;54;20410;-74
2023/11/11 10:07:12;;;;;;;19.37;8.67;;;;;;;;;;2612933;54;20423;-75
2023/11/11 10:09:39;;;;;;;15.47;10.00;;;;;;;;;;2613758;47;20406;-75
2023/11/11 10:12:05;;;;;;;12.83;10.17;;;;;;;;;;2613347;54;20412;-75
2023/11/11 10:14:34;;;;;;;12.17;9.00;;;;;;;;;;2614315;54;20387;-76
2023/11/11 10:17:03;;;;;;;12.77;9.10;;;;;;;;;;2613801;54;20439;-74
2023/11/11 10:19:31;;;;;;;20.67;10.87;;;;;;;;;;2613373;54;20438;-74
2023/11/11 10:21:57;;;;;;;9.83;5.73;;;;;;;;;;2612712;54;20423;-74
2023/11/11 10:24:24;;;;;;;14.87;9.83;;;;;;;;;;2612567;47;20411;-75
2023/11/11 10:26:50;;;;;;;17.80;10.37;;;;;;;;;;2612902;54;20416;-74
2023/11/11 10:29:16;;;;;;;10.07;7.30;;;;;;;;;;2611022;54;20410;-74
2023/11/11 10:31:43;;;;;;;24.70;11.17;;;;;;;;;;2612254;47;20427;-74
2023/11/11 10:34:09;;;;;;;18.43;10.00;;;;;;;;;;2612797;54;20447;-74
2023/11/11 10:36:42;;;;;;;13.80;10.73;;;;;;;;;;2611605;54;20495;-75
2023/11/11 10:39:10;;;;;;;17.50;10.60;;;;;;;;;;2612749;54;20430;-75
2023/11/11 10:41:37;;;;;;;14.60;9.37;;;;;;;;;;2612446;54;20464;-77
2023/11/11 10:44:07;;;;;;;16.90;11.30;;;;;;;;;;2611198;54;20430;-76
2023/11/11 10:46:35;;;;;;;16.60;10.60;;;;;;;;;;2612630;54;20407;-76
2023/11/11 10:49:03;;;;;;;16.80;11.63;;;;;;;;;;2612898;39;21164;-76
2023/11/11 10:51:29;;;;;;;19.33;9.60;;;;;;;;;;2612248;54;20387;-73
2023/11/11 10:53:58;;;;;;;18.50;10.83;;;;;;;;;;2614036;54;20408;-75
2023/11/11 10:56:24;;;;;;;16.60;7.90;;;;;;;;;;2613967;54;20429;-75
2023/11/11 10:58:52;;;;;;;11.53;8.63;;;;;;;;;;2614332;54;20404;-76
2023/11/11 11:01:18;;;;;;;12.20;8.73;;;;;;;;;;2613895;54;20400;-76
2023/11/11 11:03:44;;;;;;;12.00;8.33;;;;;;;;;;2614126;54;20450;-76
2023/11/11 11:06:21;;;;;;;9.87;8.10;;;;;;;;;;2612448;47;20424;-76
2023/11/11 11:08:47;;;;;;;14.77;9.00;;;;;;;;;;2613663;39;20859;-77
2023/11/11 11:11:26;;;;;;;9.17;6.53;;;;;;;;;;2613131;54;20503;-76
2023/11/11 11:13:54;;;;;;;14.57;9.40;;;;;;;;;;2613058;47;21733;-75
2023/11/11 11:16:28;;;;;;;11.93;7.80;;;;;;;;;;2613796;54;20434;-75
2023/11/11 11:18:55;;;;;;;12.00;7.80;;;;;;;;;;2613917;54;20416;-76
2023/11/11 11:21:22;;;;;;;10.40;7.67;;;;;;;;;;2613768;39;20768;-76
2023/11/11 11:23:52;;;;;;;15.03;7.37;;;;;;;;;;2613519;54;20426;-76
2023/11/11 11:26:27;;;;;;;11.73;7.03;;;;;;;;;;2613582;54;20957;-74
2023/11/11 11:29:13;;;;;;;12.13;7.10;;;;;;;;;;2613798;54;20422;-75
2023/11/11 11:31:59;;;;;;;12.13;8.07;;;;;;;;;;2614263;54;20579;-75
2023/11/11 11:34:25;;;;;;;16.73;7.43;;;;;;;;;;2613637;51;20408;-76
2023/11/11 11:36:55;;;;;;;12.20;6.80;;;;;;;;;;2613374;47;21167;-76
2023/11/11 11:39:25;;;;;;;15.90;7.40;;;;;;;;;;2614175;54;20412;-76
2023/11/11 11:41:55;;;;;;;12.60;7.20;;;;;;;;;;2613198;47;20438;-76
2023/11/11 11:44:21;;;;;;;14.07;6.07;;;;;;;;;;2613719;54;20407;-74
2023/11/11 11:46:47;;;;;;;12.20;7.20;;;;;;;;;;2613387;54;20395;-75
2023/11/11 11:49:13;;;;;;;13.80;7.63;;;;;;;;;;2613896;54;20423;-75
2023/11/11 11:51:52;;;;;;;13.20;6.60;;;;;;;;;;2612764;54;20396;-76
2023/11/11 11:54:18;;;;;;;7.57;5.80;;;;;;;;;;2613876;54;20395;-75
2023/11/11 11:56:44;;;;;;;10.60;6.20;;;;;;;;;;2613179;49;20415;-75
2023/11/11 11:59:15;;;;;;;5.93;4.90;;;;;;;;;;2613374;47;20435;-77
2023/11/11 12:01:41;;;;;;;7.63;5.60;;;;;;;;;;2612215;47;20411;-77
2023/11/11 12:04:08;;;;;;;10.27;5.77;;;;;;;;;;2613388;54;20391;-78
2023/11/11 12:06:40;;;;;;;7.60;5.33;;;;;;;;;;2613024;54;20943;-77
2023/11/11 12:09:09;;;;;;;11.77;6.10;;;;;;;;;;2613127;46;20470;-77
2023/11/11 12:11:37;;;;;;;6.07;4.60;;;;;;;;;;2612898;54;20420;-76
2023/11/11 12:14:13;;;;;;;8.40;5.77;;;;;;;;;;2612264;47;20396;-76
2023/11/11 12:16:40;;;;;;;5.30;4.20;;;;;;;;;;2612536;51;20401;-76
2023/11/11 12:19:13;;;;;;;9.20;3.90;;;;;;;;;;2614746;54;20379;-76
2023/11/11 12:21:41;;;;;;;9.03;5.73;;;;;;;;;;2613037;50;20427;-76
2023/11/11 12:24:08;;;;;;;7.83;5.37;;;;;;;;;;2614115;54;20972;-77
2023/11/11 12:26:37;;;;;;;8.23;5.43;;;;;;;;;;2613014;54;20426;-77
2023/11/11 12:29:03;;;;;;;4.77;3.83;;;;;;;;;;2614006;54;20427;-74
2023/11/11 12:31:29;;;;;;;5.17;4.33;;;;;;;;;;2614488;54;20390;-73
2023/11/11 12:33:56;;;;;;;5.20;4.07;;;;;;;;;;2614702;54;20406;-73
2023/11/11 12:36:22;;;;;;;6.00;5.20;;;;;;;;;;2614337;54;20505;-74
2023/11/11 12:38:51;;;;;;;8.00;5.50;;;;;;;;;;2614191;54;20929;-78
2023/11/11 12:41:17;;;;;;;10.00;5.57;;;;;;;;;;2613691;47;20416;-75
2023/11/11 12:43:43;;;;;;;5.73;4.20;;;;;;;;;;2614686;54;20408;-75
2023/11/11 12:46:16;;;;;;;5.73;3.43;;;;;;;;;;2614173;54;20434;-74
2023/11/11 12:48:42;;;;;;;8.23;5.47;;;;;;;;;;2615035;39;20754;-74
2023/11/11 12:51:26;;;;;;;7.93;5.60;;;;;;;;;;2614276;54;20450;-74
2023/11/11 12:53:53;;;;;;;12.37;6.20;;;;;;;;;;2614231;47;20426;-74
2023/11/11 12:56:20;;;;;;;10.20;6.17;;;;;;;;;;2613622;46;20538;-73
2023/11/11 12:58:47;;;;;;;9.20;7.33;;;;;;;;;;2614128;54;20997;-75
2023/11/11 13:01:23;;;;;;;11.43;7.70;;;;;;;;;;2613805;54;20419;-74
2023/11/11 13:03:50;;;;;;;12.77;7.47;;;;;;;;;;2614218;54;20421;-74
2023/11/11 13:06:17;;;;;;;10.03;5.27;;;;;;;;;;2612599;47;20415;-76
2023/11/11 13:08:50;;;;;;;6.40;5.57;;;;;;;;;;2614121;54;21005;-75
2023/11/11 13:11:16;;;;;;;7.73;6.80;;;;;;;;;;2613264;54;20616;-75
2023/11/11 13:13:43;;;;;;;7.40;6.10;;;;;;;;;;2613536;54;21924;-76
2023/11/11 13:16:10;;;;;;;12.63;8.40;;;;;;;;;;2613372;54;20525;-75
2023/11/11 13:18:36;;;;;;;8.90;6.83;;;;;;;;;;2614616;39;20834;-75
2023/11/11 13:21:08;;;;;;;8.93;7.60;;;;;;;;;;2614303;54;21473;-77
2023/11/11 13:23:34;;;;;;;11.30;7.73;;;;;;;;;;2613087;47;20409;-76
2023/11/11 13:26:00;;;;;;;11.80;7.20;;;;;;;;;;2612936;54;20371;-74
2023/11/11 13:28:30;;;;;;;8.80;6.43;;;;;;;;;;2613438;54;20392;-75
2023/11/11 13:30:57;;;;;;;11.47;6.10;;;;;;;;;;2613946;54;20416;-75
2023/11/11 13:33:24;;;;;;;9.10;5.70;;;;;;;;;;2614076;47;20412;-76
2023/11/11 13:35:54;;;;;;;5.77;3.93;;;;;;;;;;2614748;39;20799;-76
2023/11/11 13:38:21;;;;;;;6.17;4.50;;;;;;;;;;2613908;47;20413;-75
2023/11/11 13:40:48;;;;;;;8.73;4.37;;;;;;;;;;2614914;54;20503;-75
2023/11/11 13:43:20;;;;;;;6.07;4.70;;;;;;;;;;2614353;47;20423;-78
2023/11/11 13:45:48;;;;;;;7.27;4.27;;;;;;;;;;2614554;47;20415;-78
2023/11/11 13:48:15;;;;;;;6.10;4.07;;;;;;;;;;2614014;54;20400;-76
2023/11/11 13:50:41;;;;;;;4.83;3.87;;;;;;;;;;2613817;47;20425;-75
2023/11/11 13:53:07;;;;;;;4.60;4.20;;;;;;;;;;2613831;49;20414;-75
2023/11/11 13:55:35;;;;;;;7.07;5.53;;;;;;;;;;2614031;54;20433;-75
2023/11/11 13:58:01;;;;;;;5.50;5.00;;;;;;;;;;2614434;54;20433;-75
2023/11/11 14:00:28;;;;;;;6.43;5.13;;;;;;;;;;2614318;54;20403;-76
2023/11/11 14:03:02;;;;;;;7.47;5.07;;;;;;;;;;2613976;54;20423;-75
2023/11/11 14:05:28;;;;;;;6.37;4.80;;;;;;;;;;2614445;54;20393;-75
2023/11/11 14:07:55;;;;;;;10.83;6.03;;;;;;;;;;2614538;54;20456;-75
2023/11/11 14:10:23;;;;;;;6.30;5.47;;;;;;;;;;2615165;39;20887;-74
2023/11/11 14:12:50;;;;;;;6.20;4.80;;;;;;;;;;2613907;46;20947;-76
2023/11/11 14:15:19;;;;;;;6.17;4.97;;;;;;;;;;2614435;54;20477;-76
2023/11/11 14:17:51;;;;;;;10.03;6.10;;;;;;;;;;2614564;54;20390;-74
2023/11/11 14:20:18;;;;;;;9.60;6.27;;;;;;;;;;2614499;54;20391;-76
2023/11/11 14:22:45;;;;;;;6.67;5.77;;;;;;;;;;2613980;47;20446;-75
2023/11/11 14:25:13;;;;;;;10.33;5.90;;;;;;;;;;2613875;54;20938;-75
2023/11/11 14:27:44;;;;;;;9.13;5.90;;;;;;;;;;2614069;54;20415;-76